Time;durP1;ratioP1;P1;durP2;ratioP2;P2;SDS_P1;SDS_P2;PMS_P1;PMS_P2;Temp;Humidity;BMP_temperature;BMP_pressure;BME280_temperature;BME280_humidity;BME280_pressure;Samples;Min_cycle;Max_cycle;Signal;HPM_P1;HPM_P2
2023/12/23 11:23:33;;;;;;;2.90;2.47;;;7.90;99.90;;;;;;5112477;27;20585;-84
2023/12/23 11:26:03;;;;;;;1.90;1.80;;;8.10;99.90;;;;;;5111021;28;20169;-85
2023/12/23 11:28:57;;;;;;;1.98;1.90;;;8.10;99.90;;;;;;5111160;28;20269;-85
2023/12/23 11:31:24;;;;;;;1.98;1.92;;;8.10;99.90;;;;;;5108409;28;20187;-84
2023/12/23 11:33:57;;;;;;;2.25;2.15;;;8.10;99.90;;;;;;5110933;28;20688;-85
2023/12/23 11:36:25;;;;;;;10.05;9.10;;;8.10;99.90;;;;;;5111271;28;20186;-86
2023/12/23 11:38:52;;;;;;;9.18;8.48;;;8.10;99.90;;;;;;5110884;28;20196;-85
2023/12/23 11:41:20;;;;;;;3.22;3.00;;;8.20;99.90;;;;;;5111003;28;20694;-85
2023/12/23 11:43:52;;;;;;;1.15;1.10;;;8.10;99.90;;;;;;5112112;28;20177;-85
2023/12/23 11:46:20;;;;;;;1.33;1.33;;;8.20;99.90;;;;;;5111342;28;20179;-86
2023/12/23 11:48:47;;;;;;;20.13;17.98;;;8.20;99.90;;;;;;5093554;28;20196;-84
2023/12/23 11:51:13;;;;;;;134.13;94.57;;;8.30;99.90;;;;;;5111884;28;20244;-84
2023/12/23 11:53:40;;;;;;;76.97;59.80;;;8.30;99.90;;;;;;5110642;28;20203;-88
2023/12/23 11:56:06;;;;;;;56.08;46.00;;;8.30;99.90;;;;;;5110973;28;20177;-84
2023/12/23 11:58:32;;;;;;;19.48;17.48;;;8.30;99.90;;;;;;5110665;28;20188;-84
2023/12/23 12:00:59;;;;;;;9.43;8.63;;;8.30;99.90;;;;;;5109256;28;20747;-84
2023/12/23 12:03:25;;;;;;;9.32;8.43;;;8.40;99.90;;;;;;5109768;28;20180;-85
2023/12/23 12:05:56;;;;;;;7.55;6.82;;;8.40;99.90;;;;;;5110222;28;20238;-85
2023/12/23 12:08:21;;;;;;;4.28;4.00;;;8.40;99.90;;;;;;5109788;28;20196;-84
2023/12/23 12:10:47;;;;;;;1.95;1.60;;;8.40;99.90;;;;;;5109653;28;20279;-83
2023/12/23 12:13:13;;;;;;;1.50;1.40;;;8.40;99.90;;;;;;5109896;28;20255;-87
2023/12/23 12:15:41;;;;;;;2.60;2.47;;;8.40;99.90;;;;;;5109500;28;20646;-87
2023/12/23 12:18:07;;;;;;;0.50;0.50;;;8.40;99.90;;;;;;5109967;28;20712;-86
2023/12/23 12:20:33;;;;;;;0.77;0.70;;;8.50;99.90;;;;;;5109692;28;20176;-84
2023/12/23 12:23:01;;;;;;;1.48;0.93;;;8.50;99.90;;;;;;5103747;28;20257;-84
2023/12/23 12:25:28;;;;;;;0.98;0.98;;;8.50;99.90;;;;;;5095783;28;20269;-87
2023/12/23 12:27:55;;;;;;;1.33;0.77;;;8.50;99.90;;;;;;5096039;28;20193;-86
2023/12/23 12:30:20;;;;;;;0.88;0.80;;;8.50;99.90;;;;;;5095653;28;20169;-84
2023/12/23 12:32:47;;;;;;;1.80;1.70;;;8.50;99.90;;;;;;5095422;28;20185;-84
2023/12/23 12:35:13;;;;;;;0.80;0.80;;;8.50;99.90;;;;;;5096121;28;20203;-86
2023/12/23 12:37:40;;;;;;;0.70;0.70;;;8.50;99.90;;;;;;5095293;28;20205;-86
2023/12/23 12:40:13;;;;;;;2.90;2.25;;;8.40;99.90;;;;;;5096559;28;20177;-84
2023/12/23 12:42:50;;;;;;;1.08;1.08;;;8.40;99.90;;;;;;5095321;28;20201;-84
2023/12/23 12:45:26;;;;;;;0.82;0.82;;;8.30;99.90;;;;;;5095519;28;20190;-85
2023/12/23 12:47:54;;;;;;;1.80;1.70;;;8.40;99.90;;;;;;5094879;28;20172;-85
2023/12/23 12:50:20;;;;;;;1.50;1.50;;;8.30;99.90;;;;;;5094848;28;20706;-85
2023/12/23 12:52:46;;;;;;;1.60;1.50;;;8.30;99.90;;;;;;5094951;28;20271;-85
2023/12/23 12:55:13;;;;;;;1.70;1.60;;;8.40;99.90;;;;;;5094911;28;20177;-85
2023/12/23 12:57:39;;;;;;;4.28;3.95;;;8.40;99.90;;;;;;5095276;28;20173;-85
2023/12/23 13:00:07;;;;;;;2.25;2.15;;;8.40;99.90;;;;;;5094614;28;20172;-85
2023/12/23 13:02:33;;;;;;;1.00;1.00;;;8.40;99.90;;;;;;5095618;28;20197;-85
2023/12/23 13:04:59;;;;;;;3.35;2.33;;;8.40;99.90;;;;;;5094388;28;20175;-85
2023/12/23 13:07:35;;;;;;;1.30;1.30;;;8.40;99.90;;;;;;5095309;28;20168;-85
2023/12/23 13:10:01;;;;;;;1.50;1.40;;;8.40;99.90;;;;;;5095282;28;20639;-85
2023/12/23 13:12:26;;;;;;;1.67;1.58;;;8.40;99.90;;;;;;5094644;28;20271;-85
2023/12/23 13:15:02;;;;;;;1.70;1.60;;;8.40;99.90;;;;;;5094598;28;20184;-86
2023/12/23 13:17:34;;;;;;;0.52;0.52;;;8.40;99.90;;;;;;5094244;28;20698;-86
2023/12/23 13:20:13;;;;;;;2.22;2.13;;;8.40;99.90;;;;;;5094815;28;20169;-85
2023/12/23 13:22:39;;;;;;;2.20;2.10;;;8.40;99.90;;;;;;5094342;28;20212;-84
2023/12/23 13:25:09;;;;;;;1.40;1.33;;;8.40;99.90;;;;;;5094752;28;20169;-85
2023/12/23 13:27:34;;;;;;;1.35;1.35;;;8.40;99.90;;;;;;5093764;28;20655;-85
2023/12/23 13:30:00;;;;;;;5.10;4.60;;;8.40;99.90;;;;;;5094141;28;20165;-85
2023/12/23 13:32:26;;;;;;;21.60;18.10;;;8.30;99.90;;;;;;5095244;28;20173;-85
2023/12/23 13:35:07;;;;;;;31.75;23.35;;;8.40;99.90;;;;;;5093872;28;20177;-85
2023/12/23 13:37:33;;;;;;;34.03;23.95;;;8.30;99.90;;;;;;5094733;28;20169;-84
2023/12/23 13:39:59;;;;;;;7.85;6.35;;;8.40;99.90;;;;;;5095124;28;20173;-84
2023/12/23 13:42:40;;;;;;;3.95;3.65;;;8.40;99.90;;;;;;5094974;28;20247;-84
2023/12/23 13:45:50;;;;;;;2.78;2.58;;;8.30;99.90;;;;;;5094228;28;20179;-84
2023/12/23 13:48:16;;;;;;;1.48;1.48;;;8.30;99.90;;;;;;5094166;28;20273;-84
2023/12/23 13:50:41;;;;;;;1.30;1.30;;;8.30;99.90;;;;;;5093786;28;20176;-84
2023/12/23 13:53:07;;;;;;;1.60;1.50;;;8.30;99.90;;;;;;5093671;28;20522;-84
2023/12/23 13:55:32;;;;;;;1.40;1.30;;;8.30;99.90;;;;;;5093988;28;20191;-84
2023/12/23 13:58:18;;;;;;;1.20;1.20;;;8.30;99.90;;;;;;5094719;28;20189;-84
2023/12/23 14:00:43;;;;;;;1.45;1.30;;;8.30;99.90;;;;;;5093179;28;20164;-84
2023/12/23 14:03:09;;;;;;;1.08;1.08;;;8.30;99.90;;;;;;5093182;28;20173;-84
2023/12/23 14:05:35;;;;;;;1.35;1.35;;;8.30;99.90;;;;;;5093681;28;20177;-84
2023/12/23 14:08:01;;;;;;;2.28;0.80;;;8.20;99.90;;;;;;5093003;28;20193;-84
2023/12/23 14:10:26;;;;;;;1.10;1.00;;;8.30;99.90;;;;;;5093836;28;20177;-83
2023/12/23 14:12:52;;;;;;;1.02;0.93;;;8.20;99.90;;;;;;5093486;28;20249;-83
2023/12/23 14:15:18;;;;;;;1.02;0.80;;;8.30;99.90;;;;;;5093408;28;20184;-82
2023/12/23 14:17:43;;;;;;;1.88;1.52;;;8.20;99.90;;;;;;5093360;28;20718;-84
2023/12/23 14:20:09;;;;;;;0.93;0.93;;;8.20;99.90;;;;;;5093109;28;20181;-84
2023/12/23 14:22:34;;;;;;;1.20;1.10;;;8.20;99.90;;;;;;5093420;28;20361;-83
2023/12/23 14:25:00;;;;;;;3.10;2.90;;;8.30;99.90;;;;;;5093485;28;20209;-83
2023/12/23 14:27:26;;;;;;;3.00;2.80;;;8.20;99.90;;;;;;5093856;28;20242;-84
2023/12/23 14:29:51;;;;;;;3.45;3.20;;;8.20;99.90;;;;;;5093412;28;20608;-85
2023/12/23 14:32:17;;;;;;;2.03;1.92;;;8.20;99.90;;;;;;5092973;28;20183;-85
2023/12/23 14:34:42;;;;;;;1.10;1.10;;;8.20;99.90;;;;;;5092925;28;20207;-85
2023/12/23 14:37:08;;;;;;;1.30;1.30;;;8.20;99.90;;;;;;5093508;28;20185;-87
2023/12/23 14:39:34;;;;;;;1.70;1.60;;;8.20;99.90;;;;;;5093218;28;20279;-86
2023/12/23 14:41:59;;;;;;;1.38;1.27;;;8.20;99.90;;;;;;5093708;28;20203;-83
2023/12/23 14:44:25;;;;;;;1.83;1.73;;;8.10;99.90;;;;;;5093723;28;20177;-85
2023/12/23 14:46:51;;;;;;;3.55;3.28;;;8.20;99.90;;;;;;5092918;28;20191;-84
2023/12/23 14:49:19;;;;;;;0.95;0.95;;;8.20;99.90;;;;;;5092442;28;20197;-84
2023/12/23 14:51:45;;;;;;;1.23;1.00;;;8.20;99.90;;;;;;5092380;28;20204;-84
2023/12/23 14:54:10;;;;;;;2.15;1.00;;;8.20;99.90;;;;;;5092360;28;20219;-84
2023/12/23 14:56:36;;;;;;;0.93;0.82;;;8.10;99.90;;;;;;5092392;28;20189;-84
2023/12/23 14:59:03;;;;;;;0.57;0.57;;;8.20;99.90;;;;;;5092952;28;20686;-84
2023/12/23 15:01:29;;;;;;;0.30;0.30;;;8.10;99.90;;;;;;5092874;28;20196;-84
2023/12/23 15:03:56;;;;;;;1.38;0.50;;;8.10;99.90;;;;;;5093326;28;20184;-84
2023/12/23 15:06:22;;;;;;;0.95;0.60;;;8.10;99.90;;;;;;5093272;28;20172;-86
2023/12/23 15:08:48;;;;;;;0.85;0.52;;;8.00;99.90;;;;;;5092287;28;20204;-86
2023/12/23 15:11:14;;;;;;;0.57;0.40;;;8.00;99.90;;;;;;5092746;28;20208;-84
2023/12/23 15:13:39;;;;;;;0.57;0.52;;;8.00;99.90;;;;;;5093718;28;20161;-86
2023/12/23 15:16:05;;;;;;;0.40;0.40;;;8.10;99.90;;;;;;5092473;28;20234;-86
2023/12/23 15:18:32;;;;;;;0.40;0.40;;;8.00;99.90;;;;;;5092317;28;20204;-86
2023/12/23 15:20:58;;;;;;;0.65;0.63;;;8.00;99.90;;;;;;5092073;28;20248;-87
2023/12/23 15:23:23;;;;;;;0.70;0.70;;;8.00;99.90;;;;;;5092601;28;20261;-87
2023/12/23 15:25:49;;;;;;;7.78;6.07;;;8.00;99.90;;;;;;5093059;28;20173;-85
2023/12/23 15:28:15;;;;;;;179.95;66.43;;;8.00;99.90;;;;;;5092108;28;20768;-86
2023/12/23 15:30:41;;;;;;;12.32;10.40;;;8.00;99.90;;;;;;5094898;28;20188;-84
2023/12/23 15:33:07;;;;;;;3.90;3.50;;;8.00;99.90;;;;;;5092422;28;20254;-84
2023/12/23 15:35:32;;;;;;;2.80;2.60;;;8.00;99.90;;;;;;5092110;28;20192;-84
2023/12/23 15:37:58;;;;;;;2.63;2.53;;;8.00;99.90;;;;;;5092545;28;20200;-84
2023/12/23 15:40:23;;;;;;;1.20;1.20;;;8.00;99.90;;;;;;5093067;28;20173;-85
2023/12/23 15:42:49;;;;;;;1.27;1.20;;;8.00;99.90;;;;;;5092518;28;20200;-85
2023/12/23 15:45:15;;;;;;;1.42;1.40;;;7.90;99.90;;;;;;5092374;28;20165;-85
2023/12/23 15:47:41;;;;;;;1.05;0.90;;;7.90;99.90;;;;;;5093320;28;20169;-85
2023/12/23 15:50:06;;;;;;;0.90;0.90;;;7.90;99.90;;;;;;5093059;28;20169;-85
2023/12/23 15:52:32;;;;;;;0.85;0.85;;;7.90;99.90;;;;;;5092544;28;20180;-85
2023/12/23 15:54:58;;;;;;;0.93;0.93;;;7.90;99.90;;;;;;5092116;28;20173;-85
2023/12/23 15:57:24;;;;;;;1.10;1.10;;;7.90;99.90;;;;;;5091841;28;20248;-87
2023/12/23 15:59:51;;;;;;;0.98;0.98;;;7.90;99.90;;;;;;5095455;28;20706;-86
2023/12/23 16:02:17;;;;;;;0.90;0.90;;;7.90;99.90;;;;;;5096338;28;20201;-87
2023/12/23 16:04:42;;;;;;;1.70;1.00;;;7.90;99.90;;;;;;5096845;28;20195;-86
2023/12/23 16:07:08;;;;;;;1.05;1.00;;;7.90;99.90;;;;;;5095450;28;20198;-86
2023/12/23 16:09:33;;;;;;;0.77;0.77;;;7.90;99.90;;;;;;5094437;28;20693;-86
2023/12/23 16:11:59;;;;;;;0.90;0.90;;;7.90;99.90;;;;;;5094482;28;20168;-86
2023/12/23 16:14:25;;;;;;;1.48;1.38;;;7.90;99.90;;;;;;5095046;28;20208;-87
2023/12/23 16:16:50;;;;;;;1.40;1.20;;;7.90;99.90;;;;;;5095385;28;20177;-84
2023/12/23 16:19:16;;;;;;;1.60;1.50;;;7.90;99.90;;;;;;5096176;28;20257;-84
2023/12/23 16:21:42;;;;;;;1.13;1.13;;;7.90;99.90;;;;;;5094499;28;20212;-85
2023/12/23 16:24:08;;;;;;;1.30;1.20;;;7.90;99.90;;;;;;5095361;28;20169;-85
2023/12/23 16:26:33;;;;;;;1.00;1.00;;;7.90;99.90;;;;;;5095333;28;20662;-85
2023/12/23 16:28:59;;;;;;;2.38;0.90;;;7.80;99.90;;;;;;5094916;28;20613;-85
2023/12/23 16:31:27;;;;;;;0.82;0.80;;;7.80;99.90;;;;;;5095779;28;20192;-85
2023/12/23 16:33:53;;;;;;;0.80;0.80;;;7.80;99.90;;;;;;5095903;28;20172;-85
2023/12/23 16:36:19;;;;;;;1.00;0.98;;;7.80;99.90;;;;;;5096133;28;20172;-85
2023/12/23 16:38:48;;;;;;;1.67;1.13;;;7.80;99.90;;;;;;5095196;28;20200;-85
2023/12/23 16:41:13;;;;;;;0.95;0.88;;;7.80;99.90;;;;;;5094677;28;20207;-84
2023/12/23 16:43:42;;;;;;;0.75;0.75;;;7.80;99.90;;;;;;5095842;28;20635;-85
2023/12/23 16:46:08;;;;;;;1.45;1.17;;;7.80;99.90;;;;;;5094785;28;20157;-86
2023/12/23 16:48:34;;;;;;;1.10;1.10;;;7.80;99.90;;;;;;5096908;28;20188;-85
2023/12/23 16:51:00;;;;;;;9.27;8.23;;;7.80;99.90;;;;;;5098420;28;20264;-86
2023/12/23 16:53:26;;;;;;;9.45;6.22;;;7.80;99.90;;;;;;5092870;28;20190;-85
2023/12/23 16:55:53;;;;;;;8.05;7.28;;;7.80;99.90;;;;;;5094952;28;20226;-85
2023/12/23 16:58:19;;;;;;;3.88;3.58;;;7.80;99.90;;;;;;5095812;28;20228;-85
2023/12/23 17:00:44;;;;;;;1.90;1.70;;;7.80;99.90;;;;;;5083593;28;20255;-85
2023/12/23 17:03:12;;;;;;;1.40;1.30;;;7.80;99.90;;;;;;5074345;28;20233;-84
2023/12/23 17:05:37;;;;;;;4.43;3.53;;;7.80;99.90;;;;;;5074590;28;20189;-85
2023/12/23 17:08:03;;;;;;;2.15;1.95;;;7.80;99.90;;;;;;5074320;28;20339;-85
2023/12/23 17:10:30;;;;;;;2.00;1.80;;;7.80;99.90;;;;;;5074039;28;20182;-85
2023/12/23 17:12:55;;;;;;;2.20;2.10;;;7.80;99.90;;;;;;5074275;28;20160;-85
2023/12/23 17:15:21;;;;;;;2.80;2.60;;;7.80;99.90;;;;;;5074458;28;20181;-85
2023/12/23 17:17:47;;;;;;;4.93;4.53;;;7.80;99.90;;;;;;5073815;28;20177;-85
2023/12/23 17:20:13;;;;;;;8.40;7.57;;;7.70;99.90;;;;;;5085644;28;20204;-85
2023/12/23 17:22:39;;;;;;;17.08;15.27;;;7.80;99.90;;;;;;5094449;28;20209;-85
2023/12/23 17:25:05;;;;;;;12.50;10.45;;;7.70;99.90;;;;;;5094223;28;20251;-85
2023/12/23 17:27:30;;;;;;;11.38;10.13;;;7.70;99.90;;;;;;5094027;28;20199;-84
2023/12/23 17:29:59;;;;;;;8.63;7.55;;;7.70;99.90;;;;;;5094111;28;20192;-85
2023/12/23 17:32:26;;;;;;;2.92;2.42;;;7.70;99.90;;;;;;5093754;28;20207;-85
2023/12/23 17:34:52;;;;;;;3.97;1.88;;;7.70;99.90;;;;;;5093970;28;20183;-85
2023/12/23 17:37:18;;;;;;;1.40;1.30;;;7.70;99.90;;;;;;5094219;28;20184;-85
2023/12/23 17:39:43;;;;;;;1.35;1.23;;;7.70;99.90;;;;;;5094043;28;20193;-85
2023/12/23 17:42:09;;;;;;;1.27;1.17;;;7.70;99.90;;;;;;5094486;28;20292;-85
2023/12/23 17:44:34;;;;;;;1.60;1.30;;;7.70;99.90;;;;;;5093986;28;20237;-85
2023/12/23 17:47:00;;;;;;;1.55;1.20;;;7.70;99.90;;;;;;5093907;28;20173;-85
2023/12/23 17:49:27;;;;;;;1.45;1.35;;;7.70;99.90;;;;;;5093601;28;20197;-85
2023/12/23 17:51:53;;;;;;;2.70;2.60;;;7.70;99.90;;;;;;5093629;28;20191;-85
2023/12/23 17:54:18;;;;;;;3.40;1.90;;;7.70;99.90;;;;;;5093511;28;20180;-85
2023/12/23 17:56:45;;;;;;;2.95;1.50;;;7.60;99.90;;;;;;5093503;28;20180;-85
2023/12/23 17:59:13;;;;;;;3.03;1.70;;;7.60;99.90;;;;;;5080264;28;20282;-85
2023/12/23 18:01:39;;;;;;;4.47;4.07;;;7.60;99.90;;;;;;5087665;28;20200;-85
2023/12/23 18:04:05;;;;;;;4.60;2.90;;;7.60;99.90;;;;;;5077526;28;20227;-85
2023/12/23 18:06:33;;;;;;;4.00;3.60;;;7.60;99.90;;;;;;5086664;28;20165;-85
2023/12/23 18:08:58;;;;;;;3.13;1.85;;;7.50;99.90;;;;;;5086420;28;20193;-85
2023/12/23 18:11:33;;;;;;;1.60;1.50;;;7.60;99.90;;;;;;5088278;28;20210;-85
2023/12/23 18:13:59;;;;;;;2.30;2.10;;;7.60;99.90;;;;;;5084808;28;20225;-85
2023/12/23 18:16:24;;;;;;;1.88;1.77;;;7.60;99.90;;;;;;5082967;28;20658;-85
2023/12/23 18:18:51;;;;;;;2.90;2.70;;;7.50;99.90;;;;;;5086309;28;20192;-85
2023/12/23 18:21:17;;;;;;;2.33;1.60;;;7.60;99.90;;;;;;5083811;28;20211;-85
2023/12/23 18:23:42;;;;;;;2.05;1.15;;;7.50;99.90;;;;;;5081502;28;20165;-85
2023/12/23 18:26:13;;;;;;;2.13;1.30;;;7.60;99.90;;;;;;5092737;28;20169;-85
2023/12/23 18:28:41;;;;;;;2.67;1.50;;;7.60;99.90;;;;;;5087275;28;20193;-85
2023/12/23 18:31:13;;;;;;;1.38;1.27;;;7.50;99.90;;;;;;5082839;28;20165;-84
2023/12/23 18:33:51;;;;;;;3.83;1.55;;;7.50;99.90;;;;;;5075581;28;20181;-84
2023/12/23 18:36:18;;;;;;;2.38;1.58;;;7.50;99.90;;;;;;5086231;28;20196;-84
2023/12/23 18:38:43;;;;;;;4.00;1.35;;;7.50;99.90;;;;;;5081117;28;20189;-84
2023/12/23 18:41:09;;;;;;;1.73;1.40;;;7.50;99.90;;;;;;5080687;28;20219;-84
2023/12/23 18:43:35;;;;;;;1.73;1.40;;;7.50;99.90;;;;;;5086746;28;20165;-84
2023/12/23 18:46:05;;;;;;;1.52;1.42;;;7.50;99.90;;;;;;5083642;28;20161;-84
2023/12/23 18:48:32;;;;;;;2.17;1.33;;;7.50;99.90;;;;;;5083229;28;20196;-84
2023/12/23 18:51:02;;;;;;;1.73;1.30;;;7.50;99.90;;;;;;5077973;28;20180;-84
2023/12/23 18:53:28;;;;;;;2.88;1.45;;;7.50;99.90;;;;;;5080626;28;20177;-84
2023/12/23 18:55:54;;;;;;;3.08;1.50;;;7.50;99.90;;;;;;5083574;28;20172;-84
2023/12/23 18:58:24;;;;;;;1.90;1.38;;;7.50;99.90;;;;;;5082766;28;20186;-84
2023/12/23 19:00:52;;;;;;;2.17;1.35;;;7.50;99.90;;;;;;5080250;28;20212;-84
2023/12/23 19:03:18;;;;;;;1.60;1.50;;;7.50;99.90;;;;;;5082916;28;20177;-84
2023/12/23 19:05:44;;;;;;;2.90;1.63;;;7.50;99.90;;;;;;5081302;28;20170;-84
2023/12/23 19:08:10;;;;;;;21.55;13.50;;;7.60;99.90;;;;;;5077655;28;20243;-84
2023/12/23 19:10:44;;;;;;;13.88;8.82;;;7.50;99.90;;;;;;5088246;28;20189;-84
2023/12/23 19:13:34;;;;;;;23.60;16.30;;;7.60;99.90;;;;;;5094291;28;20626;-84
2023/12/23 19:16:23;;;;;;;34.28;19.17;;;7.60;99.90;;;;;;5092845;28;20169;-86
2023/12/23 19:18:56;;;;;;;31.10;17.80;;;7.60;99.90;;;;;;5092541;28;20214;-84
2023/12/23 19:21:24;;;;;;;40.28;25.45;;;7.60;99.90;;;;;;5092033;28;20208;-85
2023/12/23 19:23:55;;;;;;;57.20;32.03;;;7.60;99.90;;;;;;5092242;28;20638;-85
2023/12/23 19:26:27;;;;;;;35.70;20.83;;;7.60;99.90;;;;;;5081428;28;20186;-85
2023/12/23 19:28:53;;;;;;;26.95;13.80;;;7.60;99.90;;;;;;5072369;28;20216;-85
2023/12/23 19:31:23;;;;;;;25.77;16.23;;;7.60;99.90;;;;;;5072385;28;20166;-85
2023/12/23 19:33:49;;;;;;;27.88;17.45;;;7.70;99.90;;;;;;5074117;28;20260;-84
2023/12/23 19:36:30;;;;;;;10.75;7.35;;;7.70;99.90;;;;;;5075965;28;20181;-84
2023/12/23 19:38:58;;;;;;;6.00;4.45;;;7.70;99.90;;;;;;5075877;28;20204;-84
2023/12/23 19:41:24;;;;;;;3.58;2.60;;;7.70;99.90;;;;;;5075707;28;20185;-84
2023/12/23 19:43:50;;;;;;;4.00;3.10;;;7.70;99.90;;;;;;5075885;28;20165;-85
2023/12/23 19:46:20;;;;;;;8.38;3.88;;;7.70;99.90;;;;;;5075905;28;20188;-85
2023/12/23 19:48:57;;;;;;;4.93;3.85;;;7.70;99.90;;;;;;5076028;28;20247;-85
2023/12/23 19:51:48;;;;;;;3.50;3.20;;;7.70;99.90;;;;;;5076102;28;20169;-85
2023/12/23 19:54:52;;;;;;;4.60;2.22;;;7.70;99.90;;;;;;5075653;28;20185;-85
2023/12/23 19:57:19;;;;;;;3.88;2.42;;;7.80;99.90;;;;;;5077092;28;20169;-85
2023/12/23 19:59:45;;;;;;;3.40;1.92;;;7.80;99.90;;;;;;5076401;28;20295;-85
2023/12/23 20:02:39;;;;;;;4.25;1.95;;;7.80;99.90;;;;;;5076930;28;20279;-85
2023/12/23 20:05:07;;;;;;;2.65;1.80;;;7.80;99.90;;;;;;5075534;28;20188;-85
2023/12/23 20:07:55;;;;;;;4.07;1.77;;;7.90;99.90;;;;;;5075567;28;20252;-85
2023/12/23 20:10:23;;;;;;;4.10;1.70;;;7.90;99.90;;;;;;5076265;28;20505;-85
2023/12/23 20:13:09;;;;;;;3.15;2.20;;;7.90;99.90;;;;;;5076165;28;20177;-84
2023/12/23 20:15:52;;;;;;;2.88;1.92;;;7.90;99.90;;;;;;5075276;28;20185;-85
2023/12/23 20:18:29;;;;;;;2.67;2.03;;;8.00;99.90;;;;;;5075689;28;20216;-84
2023/12/23 20:20:55;;;;;;;3.28;1.95;;;8.00;99.90;;;;;;5075880;28;20207;-84
2023/12/23 20:23:26;;;;;;;2.45;1.70;;;7.90;99.90;;;;;;5075449;28;20217;-85
2023/12/23 20:25:52;;;;;;;2.92;1.75;;;7.90;99.90;;;;;;5075339;28;20207;-85
2023/12/23 20:28:22;;;;;;;3.22;1.60;;;7.90;99.90;;;;;;5075199;28;20221;-85
2023/12/23 20:30:59;;;;;;;2.92;1.60;;;7.90;99.90;;;;;;5075171;28;20176;-85
2023/12/23 20:33:36;;;;;;;3.13;1.70;;;7.90;99.90;;;;;;5075034;28;20252;-85
2023/12/23 20:36:03;;;;;;;4.05;1.42;;;7.90;99.90;;;;;;5074912;28;20181;-85
2023/12/23 20:38:48;;;;;;;3.45;1.65;;;7.90;99.90;;;;;;5075080;28;20194;-85
2023/12/23 20:41:46;;;;;;;4.25;1.80;;;7.90;99.90;;;;;;5074651;28;20290;-85
2023/12/23 20:44:12;;;;;;;2.72;1.48;;;7.90;99.90;;;;;;5074411;28;20165;-85
2023/12/23 20:46:40;;;;;;;1.65;1.20;;;7.90;99.90;;;;;;5074841;28;20174;-85
2023/12/23 20:49:08;;;;;;;3.03;1.45;;;7.90;99.90;;;;;;5075138;28;20262;-84
2023/12/23 20:51:34;;;;;;;2.65;1.50;;;7.90;99.90;;;;;;5075035;28;20173;-85
2023/12/23 20:54:00;;;;;;;1.42;1.33;;;7.90;99.90;;;;;;5074710;28;20174;-85
2023/12/23 20:56:26;;;;;;;6.60;1.80;;;7.90;99.90;;;;;;5076009;28;20173;-85
2023/12/23 20:58:53;;;;;;;2.05;1.50;;;7.90;99.90;;;;;;5074285;28;20241;-85
2023/12/23 21:01:25;;;;;;;1.40;1.30;;;7.90;99.90;;;;;;5074289;28;20234;-85
2023/12/23 21:03:51;;;;;;;2.63;1.30;;;7.90;99.90;;;;;;5074490;28;20201;-85
2023/12/23 21:06:19;;;;;;;2.38;1.55;;;7.80;99.90;;;;;;5074507;28;20169;-85
2023/12/23 21:08:45;;;;;;;4.32;1.40;;;7.80;99.90;;;;;;5074251;28;20292;-85
2023/12/23 21:11:12;;;;;;;3.10;1.38;;;7.80;99.90;;;;;;5074197;28;20581;-85
2023/12/23 21:13:40;;;;;;;1.42;1.33;;;7.80;99.90;;;;;;5074045;28;20208;-85
2023/12/23 21:16:10;;;;;;;2.25;1.20;;;7.80;99.90;;;;;;5074476;28;20174;-85
2023/12/23 21:18:38;;;;;;;3.72;1.40;;;7.70;99.90;;;;;;5074679;28;20185;-85
2023/12/23 21:21:16;;;;;;;2.08;1.20;;;7.70;99.90;;;;;;5074288;28;20184;-85
2023/12/23 21:23:44;;;;;;;2.15;1.30;;;7.70;99.90;;;;;;5073845;28;20212;-84
2023/12/23 21:26:19;;;;;;;1.60;1.50;;;7.70;99.90;;;;;;5073959;28;20223;-85
2023/12/23 21:28:52;;;;;;;1.70;1.60;;;7.70;99.90;;;;;;5073560;28;20225;-85
2023/12/23 21:31:21;;;;;;;18.08;12.20;;;7.70;99.90;;;;;;5073699;28;20189;-85
2023/12/23 21:33:47;;;;;;;25.48;15.00;;;7.70;99.90;;;;;;5073705;28;20185;-83
2023/12/23 21:36:17;;;;;;;23.05;13.02;;;7.70;99.90;;;;;;5073671;28;20180;-83
2023/12/23 21:38:42;;;;;;;76.18;39.25;;;7.70;99.90;;;;;;5073367;28;20197;-83
2023/12/23 21:41:08;;;;;;;19.40;10.95;;;7.70;99.90;;;;;;5073611;28;20177;-83
2023/12/23 21:43:35;;;;;;;18.80;9.40;;;7.80;99.90;;;;;;5073710;28;20177;-83
2023/12/23 21:46:05;;;;;;;32.42;17.83;;;7.80;99.90;;;;;;5073428;28;20250;-83
2023/12/23 21:48:32;;;;;;;26.25;12.88;;;7.80;99.90;;;;;;5073424;28;20200;-83
2023/12/23 21:51:09;;;;;;;72.47;35.03;;;7.80;99.90;;;;;;5073575;28;20212;-83
2023/12/23 21:53:35;;;;;;;47.67;20.80;;;7.90;99.90;;;;;;5073282;28;20193;-83
2023/12/23 21:56:30;;;;;;;11.48;8.40;;;8.00;99.90;;;;;;5072390;28;20196;-83
2023/12/23 22:02:44;;;;;;;3.38;3.08;;;8.00;99.90;;;;;;5052543;28;20217;-83
2023/12/23 22:05:17;;;;;;;1.85;1.50;;;8.00;99.90;;;;;;5048745;28;20265;-83
2023/12/23 22:07:43;;;;;;;1.40;1.30;;;8.00;99.90;;;;;;5035458;28;20213;-83
2023/12/23 22:13:55;;;;;;;1.83;1.50;;;8.00;99.90;;;;;;5012350;28;20183;-83
2023/12/23 22:16:26;;;;;;;1.10;1.02;;;8.00;99.90;;;;;;4996132;28;20207;-83
2023/12/23 22:19:00;;;;;;;1.52;1.00;;;8.00;99.90;;;;;;5022561;28;20210;-83
2023/12/23 22:21:29;;;;;;;2.75;1.38;;;8.00;99.90;;;;;;5052126;28;20213;-83
2023/12/23 22:23:57;;;;;;;1.92;1.02;;;8.00;99.90;;;;;;5051748;28;20222;-83
2023/12/23 22:26:23;;;;;;;1.58;0.80;;;8.10;99.90;;;;;;5065676;28;20235;-84
2023/12/23 22:29:19;;;;;;;1.05;1.00;;;8.10;99.90;;;;;;5073064;28;20189;-83
2023/12/23 22:35:10;;;;;;;2.35;0.80;;;8.10;99.90;;;;;;5051921;28;20249;-83
2023/12/23 22:37:37;;;;;;;0.93;0.88;;;8.10;99.90;;;;;;5035192;28;20192;-84
2023/12/23 22:40:03;;;;;;;1.30;0.95;;;8.10;99.90;;;;;;5068172;28;20185;-83
2023/12/23 22:42:28;;;;;;;4.40;0.98;;;8.10;99.90;;;;;;5072781;28;20288;-84
2023/12/23 22:44:55;;;;;;;2.50;1.02;;;8.00;99.90;;;;;;5072638;28;20205;-83
2023/12/23 22:47:21;;;;;;;1.65;1.00;;;8.10;99.90;;;;;;5073355;28;20193;-83
2023/12/23 22:49:49;;;;;;;2.35;0.80;;;8.00;99.90;;;;;;5072266;28;20238;-83
2023/12/23 22:52:18;;;;;;;1.20;0.85;;;8.00;99.90;;;;;;5073194;28;20177;-83
2023/12/23 22:54:44;;;;;;;2.05;0.88;;;8.00;99.90;;;;;;5072690;28;20276;-84
2023/12/23 22:57:21;;;;;;;0.85;0.85;;;8.00;99.90;;;;;;5072703;28;20213;-84
2023/12/23 22:59:55;;;;;;;0.90;0.90;;;8.10;99.90;;;;;;5072425;28;20250;-84
2023/12/23 23:02:23;;;;;;;1.13;1.00;;;8.00;99.90;;;;;;5072375;28;20288;-83
2023/12/23 23:04:48;;;;;;;0.93;0.90;;;8.10;99.90;;;;;;5072441;28;20182;-84
2023/12/23 23:07:16;;;;;;;1.52;1.00;;;8.10;99.90;;;;;;5073054;28;20196;-84
2023/12/23 23:09:44;;;;;;;0.73;0.73;;;8.10;99.90;;;;;;5072773;28;20193;-83
2023/12/23 23:12:10;;;;;;;1.58;1.00;;;8.10;99.90;;;;;;5072452;28;20196;-83
2023/12/23 23:14:45;;;;;;;1.02;0.93;;;8.10;99.90;;;;;;5072428;28;20170;-83
2023/12/23 23:17:38;;;;;;;1.35;0.90;;;8.10;99.90;;;;;;5073070;28;20649;-83
2023/12/23 23:20:04;;;;;;;1.15;0.80;;;8.10;99.90;;;;;;5073698;28;20216;-83
2023/12/23 23:22:30;;;;;;;1.00;1.00;;;8.10;99.90;;;;;;5072011;28;20241;-83
2023/12/23 23:24:56;;;;;;;1.10;0.85;;;8.10;99.90;;;;;;5072145;28;20181;-83
2023/12/23 23:27:22;;;;;;;1.75;0.93;;;8.20;99.90;;;;;;5072369;28;20174;-83
2023/12/23 23:29:52;;;;;;;0.85;0.82;;;8.20;99.90;;;;;;5072191;28;20402;-84
2023/12/23 23:32:19;;;;;;;0.95;0.95;;;8.20;99.90;;;;;;5072098;28;20178;-84
2023/12/23 23:34:44;;;;;;;1.00;0.85;;;8.20;99.90;;;;;;5072001;28;20181;-84
2023/12/23 23:37:10;;;;;;;1.08;0.93;;;8.20;99.90;;;;;;5071963;28;20268;-84
2023/12/23 23:39:36;;;;;;;0.60;0.60;;;8.20;99.90;;;;;;5071867;28;20197;-84
2023/12/23 23:42:02;;;;;;;0.90;0.90;;;8.10;99.90;;;;;;5071891;28;20690;-84
2023/12/23 23:44:27;;;;;;;1.13;0.60;;;8.10;99.90;;;;;;5072164;28;20182;-84
2023/12/23 23:46:53;;;;;;;1.33;0.82;;;8.10;99.90;;;;;;5072337;28;20197;-84
2023/12/23 23:49:18;;;;;;;1.65;0.77;;;8.10;99.90;;;;;;5071832;28;20224;-84
2023/12/23 23:51:46;;;;;;;2.25;0.90;;;8.10;99.90;;;;;;5071599;28;20185;-84
2023/12/23 23:54:13;;;;;;;1.05;0.80;;;8.10;99.90;;;;;;5071704;28;20184;-84
2023/12/23 23:56:39;;;;;;;0.47;0.47;;;8.20;99.90;;;;;;5072500;28;20268;-84
2023/12/23 23:59:11;;;;;;;0.85;0.60;;;8.10;99.90;;;;;;5071817;28;20221;-84
